Time;durP1;ratioP1;P1;durP2;ratioP2;P2;SDS_P1;SDS_P2;PMS_P1;PMS_P2;Temp;Humidity;BMP_temperature;BMP_pressure;BME280_temperature;BME280_humidity;BME280_pressure;Samples;Min_cycle;Max_cycle;Signal;HPM_P1;HPM_P2
2022/09/30 00:01:34;;;;;;;7.23;6.07;;;10.70;99.90;;;;;;5073874;28;20413;-69
2022/09/30 00:04:00;;;;;;;7.20;6.03;;;10.80;99.90;;;;;;5073908;28;20406;-68
2022/09/30 00:06:27;;;;;;;5.53;5.03;;;10.80;99.90;;;;;;5074043;28;20405;-68
2022/09/30 00:08:53;;;;;;;6.70;5.80;;;10.70;99.90;;;;;;5072356;28;20454;-67
2022/09/30 00:11:31;;;;;;;8.20;7.40;;;10.80;99.90;;;;;;5073256;28;20413;-68
2022/09/30 00:13:57;;;;;;;8.30;5.60;;;10.80;99.90;;;;;;5074080;28;20475;-68
2022/09/30 00:16:25;;;;;;;5.37;4.83;;;10.90;99.90;;;;;;5073556;28;20411;-68
2022/09/30 00:18:54;;;;;;;5.93;5.43;;;10.90;99.90;;;;;;5072235;28;20456;-68
2022/09/30 00:21:20;;;;;;;7.13;6.03;;;11.00;99.90;;;;;;5073515;28;20462;-68
2022/09/30 00:23:46;;;;;;;6.00;5.13;;;11.00;99.90;;;;;;5073312;28;20841;-69
2022/09/30 00:26:14;;;;;;;6.03;5.43;;;11.10;99.90;;;;;;5072414;28;20461;-68
2022/09/30 00:28:41;;;;;;;6.17;5.57;;;11.10;99.90;;;;;;5073989;28;20515;-68
2022/09/30 00:31:11;;;;;;;5.60;5.10;;;11.10;99.90;;;;;;5072344;28;20427;-69
2022/09/30 00:33:36;;;;;;;7.30;4.97;;;11.30;99.90;;;;;;5071657;28;20791;-68
2022/09/30 00:36:02;;;;;;;5.03;4.53;;;11.30;99.90;;;;;;5073082;28;20499;-68
2022/09/30 00:38:28;;;;;;;6.47;5.77;;;11.40;99.90;;;;;;5072191;28;20205;-68
2022/09/30 00:40:55;;;;;;;7.50;5.70;;;11.40;99.90;;;;;;5072899;28;20412;-68
2022/09/30 00:43:42;;;;;;;6.03;5.27;;;11.50;99.90;;;;;;5071880;28;20424;-68
2022/09/30 00:46:34;;;;;;;7.20;5.30;;;11.50;99.90;;;;;;5062093;28;20467;-68
2022/09/30 00:49:15;;;;;;;7.90;5.77;;;11.60;99.90;;;;;;5064746;28;20467;-68
2022/09/30 00:51:46;;;;;;;7.70;5.97;;;11.50;99.90;;;;;;5073300;28;20420;-67
2022/09/30 00:54:18;;;;;;;7.97;5.80;;;11.50;99.90;;;;;;5073388;28;20488;-67
2022/09/30 00:56:51;;;;;;;8.03;6.23;;;11.60;99.90;;;;;;5072912;28;20385;-69
2022/09/30 00:59:28;;;;;;;5.87;5.37;;;11.60;99.90;;;;;;5073488;28;20899;-68
2022/09/30 01:01:54;;;;;;;6.37;5.27;;;11.60;99.90;;;;;;5072359;28;20483;-68
2022/09/30 01:04:22;;;;;;;5.37;4.80;;;11.60;99.90;;;;;;5072810;28;20411;-68
2022/09/30 01:06:49;;;;;;;6.17;5.57;;;11.70;99.90;;;;;;5072759;28;20415;-68
2022/09/30 01:09:16;;;;;;;7.27;5.57;;;11.60;99.90;;;;;;5072696;28;20509;-68
2022/09/30 01:11:42;;;;;;;8.97;6.70;;;11.60;99.90;;;;;;5072804;28;21011;-67
2022/09/30 01:14:12;;;;;;;10.27;6.80;;;11.60;99.90;;;;;;5073050;28;20495;-68
2022/09/30 01:17:11;;;;;;;9.00;7.30;;;11.60;99.90;;;;;;5072279;28;20415;-67
2022/09/30 01:19:39;;;;;;;8.17;6.30;;;11.60;99.90;;;;;;5072311;28;20396;-67
2022/09/30 01:22:21;;;;;;;7.43;6.30;;;11.60;99.90;;;;;;5073317;28;20412;-69
2022/09/30 01:25:08;;;;;;;6.43;5.50;;;11.60;99.90;;;;;;5072069;28;20928;-69
2022/09/30 01:27:58;;;;;;;8.10;6.90;;;11.50;99.90;;;;;;5072687;28;20432;-68
2022/09/30 01:31:10;;;;;;;7.07;6.40;;;11.50;99.90;;;;;;5071312;28;20419;-68
2022/09/30 01:33:49;;;;;;;8.80;7.33;;;11.50;99.90;;;;;;5044584;28;20770;-68
2022/09/30 01:36:26;;;;;;;6.70;6.10;;;11.50;99.90;;;;;;5071310;28;20420;-68
2022/09/30 01:39:15;;;;;;;7.33;6.20;;;11.40;99.90;;;;;;5072407;28;20424;-68
2022/09/30 01:41:57;;;;;;;10.80;7.83;;;11.40;99.90;;;;;;5072704;28;20873;-68
2022/09/30 01:44:54;;;;;;;6.00;5.40;;;11.50;99.90;;;;;;5072774;28;20817;-68
2022/09/30 01:47:31;;;;;;;10.60;7.40;;;11.50;99.90;;;;;;5073900;28;20424;-68
2022/09/30 01:50:20;;;;;;;9.60;7.00;;;11.50;99.90;;;;;;5076454;28;20459;-68
2022/09/30 01:53:00;;;;;;;7.53;6.83;;;11.60;99.90;;;;;;5056206;28;20389;-68
2022/09/30 01:55:38;;;;;;;8.00;7.20;;;11.60;99.90;;;;;;5058566;28;20412;-68
2022/09/30 01:58:26;;;;;;;7.40;6.70;;;11.60;99.90;;;;;;5077135;28;20515;-68
2022/09/30 02:00:57;;;;;;;9.77;8.50;;;11.60;99.90;;;;;;5076527;28;20424;-68
2022/09/30 02:03:44;;;;;;;8.00;6.40;;;11.60;99.90;;;;;;5075428;28;20447;-68
2022/09/30 02:06:20;;;;;;;7.27;6.57;;;11.60;99.90;;;;;;5076493;28;20400;-68
2022/09/30 02:09:00;;;;;;;8.87;7.60;;;11.70;99.90;;;;;;5076176;28;20455;-69
2022/09/30 02:11:33;;;;;;;8.93;7.67;;;11.60;99.90;;;;;;5074479;28;20418;-69
2022/09/30 02:14:11;;;;;;;10.60;8.07;;;11.60;99.90;;;;;;5076288;28;20387;-69
2022/09/30 02:16:39;;;;;;;8.37;6.57;;;11.60;99.90;;;;;;5075684;28;20518;-68
2022/09/30 02:19:19;;;;;;;8.13;7.10;;;11.60;99.90;;;;;;5075776;28;20429;-68
2022/09/30 02:22:04;;;;;;;8.03;6.63;;;11.60;99.90;;;;;;5076179;28;20399;-69
2022/09/30 02:24:36;;;;;;;8.33;7.27;;;11.60;99.90;;;;;;5074967;28;20396;-68
2022/09/30 02:27:10;;;;;;;7.33;6.60;;;11.60;99.90;;;;;;5075518;28;20882;-68
2022/09/30 02:29:41;;;;;;;12.33;7.60;;;11.60;99.90;;;;;;5076541;28;20518;-68
2022/09/30 02:32:17;;;;;;;9.20;6.87;;;11.60;99.90;;;;;;5075663;28;20816;-68
2022/09/30 02:34:49;;;;;;;7.10;6.50;;;11.60;99.90;;;;;;5070568;28;20421;-69
2022/09/30 02:37:20;;;;;;;11.13;7.40;;;11.60;99.90;;;;;;5074214;28;20470;-68
2022/09/30 02:39:56;;;;;;;8.23;6.33;;;11.60;99.90;;;;;;5075577;28;20407;-68
2022/09/30 02:42:28;;;;;;;6.50;5.90;;;11.60;99.90;;;;;;5074749;28;20472;-68
2022/09/30 02:44:58;;;;;;;7.70;6.20;;;11.50;99.90;;;;;;5076001;28;20757;-68
2022/09/30 02:47:43;;;;;;;9.17;8.13;;;11.50;99.90;;;;;;5075609;28;20447;-69
2022/09/30 02:50:36;;;;;;;9.50;7.10;;;11.40;99.90;;;;;;5075090;28;20543;-69
2022/09/30 02:53:20;;;;;;;9.00;6.87;;;11.40;99.90;;;;;;5075760;28;20377;-69
2022/09/30 02:56:12;;;;;;;7.80;6.27;;;11.30;99.90;;;;;;5073836;28;20407;-68
2022/09/30 02:58:39;;;;;;;8.20;7.40;;;11.30;99.90;;;;;;5074651;28;20910;-69
2022/09/30 03:01:24;;;;;;;8.47;7.40;;;11.30;99.90;;;;;;5075416;28;20411;-68
2022/09/30 03:03:57;;;;;;;6.33;5.73;;;11.30;99.90;;;;;;5075388;28;20400;-69
2022/09/30 03:06:23;;;;;;;6.83;6.17;;;11.30;99.90;;;;;;5074734;28;20879;-69
2022/09/30 03:08:51;;;;;;;7.33;6.40;;;11.30;99.90;;;;;;5073055;28;20957;-69
2022/09/30 03:11:20;;;;;;;8.30;7.00;;;11.20;99.90;;;;;;5074579;28;20409;-69
2022/09/30 03:13:49;;;;;;;9.73;6.13;;;11.20;99.90;;;;;;5074854;28;20399;-68
2022/09/30 03:16:30;;;;;;;8.17;7.37;;;11.20;99.90;;;;;;5074816;28;20393;-68
2022/09/30 03:19:23;;;;;;;6.70;6.10;;;11.30;99.90;;;;;;5075361;28;20760;-68
2022/09/30 03:22:20;;;;;;;8.57;7.47;;;11.20;99.90;;;;;;5074879;28;20388;-68
2022/09/30 03:24:49;;;;;;;8.93;6.53;;;11.10;99.90;;;;;;5050222;28;20424;-69
2022/09/30 03:27:39;;;;;;;7.23;6.63;;;11.00;99.90;;;;;;5074379;28;20470;-68
2022/09/30 03:30:17;;;;;;;8.67;6.60;;;11.00;99.90;;;;;;5075097;28;20432;-68
2022/09/30 03:33:08;;;;;;;8.13;6.80;;;11.10;99.90;;;;;;5073797;28;20807;-68
2022/09/30 03:35:49;;;;;;;9.23;8.10;;;11.10;99.90;;;;;;5074543;28;20525;-69
2022/09/30 03:38:23;;;;;;;9.00;8.10;;;11.00;99.90;;;;;;5054590;28;20424;-69
2022/09/30 03:41:10;;;;;;;8.83;6.87;;;11.00;99.90;;;;;;5054540;28;20380;-68
2022/09/30 03:43:49;;;;;;;8.27;7.07;;;11.00;99.90;;;;;;5054432;28;20383;-68
2022/09/30 03:46:28;;;;;;;9.93;8.20;;;10.90;99.90;;;;;;5059822;28;20424;-69
2022/09/30 03:48:58;;;;;;;8.50;6.93;;;10.80;99.90;;;;;;5073178;28;20479;-67
2022/09/30 03:51:24;;;;;;;7.40;6.30;;;10.70;99.90;;;;;;5074224;28;20423;-68
2022/09/30 03:53:52;;;;;;;8.20;7.17;;;10.70;99.90;;;;;;5074734;28;20758;-68
2022/09/30 03:56:24;;;;;;;9.73;8.17;;;10.70;99.90;;;;;;5074530;28;20165;-68
2022/09/30 03:58:51;;;;;;;7.67;6.90;;;10.70;99.90;;;;;;5074292;28;20419;-68
2022/09/30 04:01:20;;;;;;;8.47;7.67;;;10.60;99.90;;;;;;5073990;28;20408;-68
2022/09/30 04:03:52;;;;;;;10.50;9.13;;;10.60;99.90;;;;;;5074388;28;20989;-68
2022/09/30 04:06:20;;;;;;;8.67;7.17;;;10.60;99.90;;;;;;5074191;28;20758;-68
2022/09/30 04:08:46;;;;;;;8.83;7.53;;;10.60;99.90;;;;;;5074030;28;20852;-68
2022/09/30 04:11:12;;;;;;;9.87;7.30;;;10.60;99.90;;;;;;5073770;28;20401;-68
2022/09/30 04:13:38;;;;;;;10.43;7.40;;;10.60;99.90;;;;;;5073870;28;20540;-68
2022/09/30 04:16:09;;;;;;;9.87;8.40;;;10.60;99.90;;;;;;5073517;28;20165;-71
2022/09/30 04:18:37;;;;;;;9.07;7.57;;;10.60;99.90;;;;;;5074575;28;20515;-69
2022/09/30 04:21:10;;;;;;;8.20;7.50;;;10.60;99.90;;;;;;5073802;28;20410;-68
2022/09/30 04:23:37;;;;;;;9.17;7.40;;;10.60;99.90;;;;;;5073852;28;20389;-68
2022/09/30 04:26:04;;;;;;;8.93;7.87;;;10.70;99.90;;;;;;5072509;28;20424;-69
2022/09/30 04:28:30;;;;;;;7.60;6.87;;;10.70;99.90;;;;;;5073587;28;20456;-69
2022/09/30 04:30:59;;;;;;;9.80;8.30;;;10.70;99.90;;;;;;5073834;28;20784;-69
2022/09/30 04:33:24;;;;;;;9.10;8.13;;;10.70;99.90;;;;;;5073848;28;20462;-70
2022/09/30 04:35:57;;;;;;;8.63;7.67;;;10.70;99.90;;;;;;5073712;28;20491;-69
2022/09/30 04:38:24;;;;;;;9.00;7.10;;;10.70;99.90;;;;;;5073355;28;20178;-69
2022/09/30 04:40:56;;;;;;;9.83;6.80;;;10.60;99.90;;;;;;5068728;28;20419;-69
2022/09/30 04:43:23;;;;;;;9.23;8.33;;;10.60;99.90;;;;;;5072911;28;20697;-68
2022/09/30 04:45:51;;;;;;;14.73;8.90;;;10.60;99.90;;;;;;5073343;28;20416;-69
2022/09/30 04:48:17;;;;;;;10.23;8.03;;;10.50;99.90;;;;;;5073120;28;20455;-68
2022/09/30 04:50:44;;;;;;;10.87;8.87;;;10.40;99.90;;;;;;5073500;28;20515;-69
2022/09/30 04:53:13;;;;;;;12.33;10.37;;;10.30;99.90;;;;;;5073847;28;20404;-68
2022/09/30 04:55:39;;;;;;;13.40;11.00;;;10.10;99.90;;;;;;5072376;28;20423;-68
2022/09/30 04:58:04;;;;;;;14.23;10.80;;;10.10;99.90;;;;;;5073204;28;20413;-69
2022/09/30 05:00:30;;;;;;;12.10;9.73;;;10.10;99.90;;;;;;5073568;28;20439;-69
2022/09/30 05:02:56;;;;;;;12.13;9.83;;;10.00;99.90;;;;;;5072555;28;20170;-69
2022/09/30 05:05:22;;;;;;;23.00;18.33;;;9.90;99.90;;;;;;5073330;28;20237;-69
2022/09/30 05:07:48;;;;;;;23.80;18.07;;;9.80;99.90;;;;;;5072425;28;20473;-69
2022/09/30 05:10:15;;;;;;;21.20;17.30;;;9.70;99.90;;;;;;5076099;28;20208;-69
2022/09/30 05:12:40;;;;;;;15.00;12.93;;;9.70;99.90;;;;;;5079993;28;20188;-69
2022/09/30 05:15:07;;;;;;;15.33;12.77;;;9.60;99.90;;;;;;5078711;28;20399;-69
2022/09/30 05:17:33;;;;;;;15.20;12.23;;;9.50;99.90;;;;;;5078785;28;20286;-69
2022/09/30 05:19:59;;;;;;;12.73;11.53;;;9.50;99.90;;;;;;5078544;28;20404;-69
2022/09/30 05:22:25;;;;;;;11.90;9.83;;;9.50;99.90;;;;;;5073919;28;20266;-70
2022/09/30 05:24:51;;;;;;;12.70;10.33;;;9.50;99.90;;;;;;5074170;28;20669;-70
2022/09/30 05:27:18;;;;;;;11.07;9.97;;;9.50;99.90;;;;;;5071156;28;20455;-69
2022/09/30 05:29:43;;;;;;;10.17;8.97;;;9.50;99.90;;;;;;5065647;28;20466;-69
2022/09/30 05:32:09;;;;;;;9.07;8.27;;;9.50;99.90;;;;;;5067084;28;20509;-69
2022/09/30 05:34:37;;;;;;;12.27;8.90;;;9.50;99.90;;;;;;5073267;28;20174;-69
2022/09/30 05:37:03;;;;;;;10.20;8.10;;;9.60;99.90;;;;;;5070383;28;20518;-69
2022/09/30 05:39:28;;;;;;;10.23;9.20;;;9.60;99.90;;;;;;5073043;28;20940;-68
2022/09/30 05:41:56;;;;;;;12.13;10.90;;;9.60;99.90;;;;;;5071991;28;20180;-68
2022/09/30 05:44:21;;;;;;;11.70;8.33;;;9.60;99.90;;;;;;5073356;28;20179;-68
2022/09/30 05:46:47;;;;;;;10.20;9.10;;;9.60;99.90;;;;;;5072964;28;20781;-67
2022/09/30 05:49:13;;;;;;;10.30;9.33;;;9.60;99.90;;;;;;5072967;28;20240;-69
2022/09/30 05:51:38;;;;;;;12.40;10.83;;;9.60;99.90;;;;;;5071752;28;20199;-69
2022/09/30 05:54:04;;;;;;;13.30;10.80;;;9.60;99.90;;;;;;5071403;28;20178;-68
2022/09/30 05:56:30;;;;;;;14.83;12.70;;;9.50;99.90;;;;;;5071306;28;20250;-69
2022/09/30 05:58:55;;;;;;;14.40;11.73;;;9.50;99.90;;;;;;5071887;28;20208;-68
2022/09/30 06:01:21;;;;;;;12.73;11.40;;;9.50;99.90;;;;;;5072496;28;20166;-68
2022/09/30 06:03:47;;;;;;;13.37;10.60;;;9.50;99.90;;;;;;5071304;28;20172;-69
2022/09/30 06:06:13;;;;;;;12.90;11.60;;;9.50;99.90;;;;;;5072819;28;20178;-68
2022/09/30 06:08:40;;;;;;;17.80;14.53;;;9.50;99.90;;;;;;5073284;28;20193;-67
2022/09/30 06:11:11;;;;;;;14.93;12.50;;;9.70;99.90;;;;;;5072706;28;20404;-68
2022/09/30 06:13:38;;;;;;;15.47;12.37;;;9.70;99.90;;;;;;5072933;28;20417;-68
2022/09/30 06:16:04;;;;;;;12.67;10.90;;;9.70;99.90;;;;;;5073558;28;20435;-72
2022/09/30 06:18:30;;;;;;;13.37;11.97;;;9.70;99.90;;;;;;5074374;28;20426;-70
2022/09/30 06:21:00;;;;;;;15.43;13.67;;;9.80;99.90;;;;;;5075082;28;20235;-69
2022/09/30 06:23:26;;;;;;;16.50;14.70;;;9.80;99.90;;;;;;5054735;28;20415;-68
2022/09/30 06:25:53;;;;;;;13.73;12.33;;;9.70;99.90;;;;;;5071865;28;20529;-69
2022/09/30 06:28:19;;;;;;;14.77;12.63;;;9.80;99.90;;;;;;5072779;28;20821;-68
2022/09/30 06:30:45;;;;;;;14.03;12.53;;;9.90;99.90;;;;;;5072463;28;20396;-68
2022/09/30 06:33:12;;;;;;;14.20;12.03;;;10.00;99.90;;;;;;5073268;28;20487;-68
2022/09/30 06:35:40;;;;;;;13.27;11.97;;;10.10;99.90;;;;;;5076306;28;20163;-68
2022/09/30 06:38:07;;;;;;;18.60;13.50;;;10.10;99.90;;;;;;5075919;28;20469;-69
2022/09/30 06:40:32;;;;;;;14.10;12.20;;;10.20;99.90;;;;;;5075608;28;20397;-68
2022/09/30 06:42:59;;;;;;;14.77;11.60;;;10.30;99.90;;;;;;5074691;28;20417;-68
2022/09/30 06:45:25;;;;;;;13.30;11.40;;;10.40;99.90;;;;;;5076810;28;20170;-68
2022/09/30 06:47:58;;;;;;;12.80;11.50;;;10.50;99.90;;;;;;5076293;28;20424;-68
2022/09/30 06:50:24;;;;;;;17.93;12.47;;;10.50;99.90;;;;;;5074852;28;20433;-69
2022/09/30 06:52:50;;;;;;;12.00;10.77;;;10.70;99.90;;;;;;5075668;28;20411;-70
2022/09/30 06:55:23;;;;;;;12.00;10.50;;;10.80;99.90;;;;;;5075414;28;20189;-69
2022/09/30 06:57:48;;;;;;;11.80;10.13;;;10.80;99.90;;;;;;5075363;28;20234;-69
2022/09/30 07:00:16;;;;;;;13.50;10.10;;;10.90;99.90;;;;;;5075450;28;20412;-68
2022/09/30 07:02:42;;;;;;;13.63;11.23;;;11.10;99.90;;;;;;5075685;28;20744;-69
2022/09/30 07:05:08;;;;;;;12.07;9.93;;;11.20;99.90;;;;;;5075290;28;20525;-69
2022/09/30 07:07:35;;;;;;;13.30;10.77;;;11.30;99.90;;;;;;5075286;28;20216;-69
2022/09/30 07:10:01;;;;;;;11.83;9.80;;;11.40;99.90;;;;;;5074810;28;20835;-69
2022/09/30 07:12:27;;;;;;;10.90;9.47;;;11.50;99.90;;;;;;5074369;28;20403;-68
2022/09/30 07:14:52;;;;;;;12.77;10.40;;;11.60;99.90;;;;;;5075107;28;20404;-69
2022/09/30 07:17:18;;;;;;;11.10;9.93;;;11.70;99.90;;;;;;5075291;28;20182;-67
2022/09/30 07:19:43;;;;;;;14.00;12.17;;;11.80;99.90;;;;;;5074966;28;20235;-67
2022/09/30 07:22:28;;;;;;;11.80;10.67;;;11.80;99.90;;;;;;5075689;28;20198;-68
2022/09/30 07:24:58;;;;;;;14.43;12.93;;;12.00;99.90;;;;;;5074733;28;20170;-68
2022/09/30 07:27:25;;;;;;;16.10;14.50;;;12.10;99.90;;;;;;5073033;28;20436;-68
2022/09/30 07:29:51;;;;;;;17.17;15.50;;;12.10;99.90;;;;;;5073230;28;20477;-68
2022/09/30 07:32:18;;;;;;;11.40;10.40;;;12.20;99.90;;;;;;5073958;28;20418;-67
2022/09/30 07:34:44;;;;;;;12.80;11.57;;;12.10;99.90;;;;;;5075067;28;20466;-67
2022/09/30 07:37:13;;;;;;;13.00;11.80;;;12.30;99.90;;;;;;5074581;28;20417;-68
2022/09/30 07:39:39;;;;;;;12.53;11.30;;;12.40;99.90;;;;;;5074923;28;20413;-68
2022/09/30 07:42:05;;;;;;;12.90;11.60;;;12.40;99.90;;;;;;5074382;28;20419;-67
2022/09/30 07:44:31;;;;;;;11.13;10.10;;;12.40;99.90;;;;;;5072877;28;20522;-69
2022/09/30 07:46:57;;;;;;;12.60;11.40;;;12.40;99.90;;;;;;5074142;28;20300;-67
2022/09/30 07:49:24;;;;;;;12.70;11.40;;;12.50;99.90;;;;;;5074314;28;20459;-68
2022/09/30 07:51:51;;;;;;;12.70;11.47;;;12.40;99.90;;;;;;5071821;28;20504;-69
2022/09/30 07:54:21;;;;;;;12.00;10.90;;;12.60;99.90;;;;;;5074674;28;20436;-69
2022/09/30 07:56:48;;;;;;;13.53;12.27;;;12.70;99.90;;;;;;5074434;28;20404;-70
2022/09/30 07:59:14;;;;;;;13.83;12.53;;;13.00;99.90;;;;;;5074424;28;20458;-68
2022/09/30 08:01:40;;;;;;;16.07;14.47;;;12.60;99.90;;;;;;5074523;28;20810;-68
2022/09/30 08:04:08;;;;;;;15.90;14.13;;;12.30;99.90;;;;;;5074325;28;20431;-68
2022/09/30 08:06:44;;;;;;;14.77;13.37;;;12.30;99.90;;;;;;5073750;28;20522;-68
2022/09/30 08:09:09;;;;;;;15.00;13.40;;;12.40;99.90;;;;;;5073207;28;20503;-69
2022/09/30 08:11:36;;;;;;;16.30;14.47;;;12.50;99.90;;;;;;5074059;28;20407;-68
2022/09/30 08:14:03;;;;;;;17.80;15.67;;;12.50;99.90;;;;;;5074228;28;20396;-68
2022/09/30 08:16:29;;;;;;;17.33;15.73;;;12.70;99.90;;;;;;5074185;28;20444;-68
2022/09/30 08:18:56;;;;;;;15.63;14.10;;;12.70;99.90;;;;;;5073896;28;20460;-69
2022/09/30 08:21:22;;;;;;;17.30;15.07;;;12.70;99.90;;;;;;5062188;28;20425;-69
2022/09/30 08:23:48;;;;;;;19.00;15.30;;;12.80;99.90;;;;;;5073154;28;20457;-69
2022/09/30 08:26:15;;;;;;;17.80;15.83;;;12.90;99.90;;;;;;5072677;28;20990;-69
2022/09/30 08:28:41;;;;;;;16.03;14.50;;;13.00;99.90;;;;;;5073140;28;20405;-69
2022/09/30 08:31:11;;;;;;;16.90;15.30;;;12.90;99.90;;;;;;5073872;28;21007;-69
2022/09/30 08:33:38;;;;;;;16.80;15.20;;;12.70;99.90;;;;;;5073855;28;20173;-69
2022/09/30 08:36:06;;;;;;;16.60;14.83;;;12.60;99.90;;;;;;5073706;28;20756;-69
2022/09/30 08:38:32;;;;;;;17.33;15.57;;;12.50;99.90;;;;;;5072789;28;20931;-67
2022/09/30 08:41:06;;;;;;;15.57;14.07;;;12.60;99.90;;;;;;5073298;28;20491;-68
2022/09/30 08:43:45;;;;;;;17.50;15.80;;;13.00;99.90;;;;;;5072510;28;20432;-68
2022/09/30 08:46:33;;;;;;;17.60;15.87;;;13.10;99.90;;;;;;5073529;28;20402;-69
2022/09/30 08:49:18;;;;;;;17.90;16.10;;;12.90;99.90;;;;;;5066047;28;20518;-68
2022/09/30 08:51:47;;;;;;;18.60;16.57;;;12.60;99.90;;;;;;5070686;28;20440;-69
2022/09/30 08:54:15;;;;;;;17.77;15.97;;;12.50;99.90;;;;;;5073203;28;20851;-68
2022/09/30 08:56:43;;;;;;;20.73;15.80;;;12.40;99.90;;;;;;5072515;28;20451;-68
2022/09/30 08:59:30;;;;;;;19.07;16.07;;;12.20;99.90;;;;;;5072897;28;20420;-69
2022/09/30 09:02:18;;;;;;;16.70;14.90;;;12.00;99.90;;;;;;5072925;28;20967;-68
2022/09/30 09:04:45;;;;;;;19.17;16.23;;;12.00;99.90;;;;;;5073113;28;20390;-70
2022/09/30 09:07:29;;;;;;;19.60;17.63;;;12.00;99.90;;;;;;5072669;28;20428;-67
2022/09/30 09:09:55;;;;;;;17.70;15.73;;;12.30;99.90;;;;;;5073008;28;20432;-68
2022/09/30 09:12:47;;;;;;;18.53;16.67;;;12.30;99.90;;;;;;5072287;28;20835;-68
2022/09/30 09:15:30;;;;;;;17.37;15.63;;;12.60;99.90;;;;;;5072871;28;20629;-68
2022/09/30 09:18:02;;;;;;;17.23;15.53;;;12.70;99.90;;;;;;5072205;28;20874;-69
2022/09/30 09:20:40;;;;;;;21.60;18.70;;;13.10;99.90;;;;;;5073140;28;20384;-68
2022/09/30 09:23:10;;;;;;;20.33;17.37;;;13.30;99.90;;;;;;5073218;28;20464;-69
2022/09/30 09:25:36;;;;;;;19.93;17.77;;;13.60;99.90;;;;;;5072976;28;20908;-69
2022/09/30 09:28:14;;;;;;;16.97;15.27;;;13.70;99.90;;;;;;5071451;28;21017;-69
2022/09/30 09:30:47;;;;;;;20.97;17.57;;;13.80;99.90;;;;;;5073562;28;20409;-68
2022/09/30 09:33:21;;;;;;;21.43;16.33;;;13.90;99.90;;;;;;5072088;28;20967;-67
2022/09/30 09:36:16;;;;;;;18.03;15.17;;;13.60;99.90;;;;;;5073112;28;20437;-68
2022/09/30 09:39:05;;;;;;;18.53;15.80;;;13.70;99.90;;;;;;5031571;28;20504;-68
2022/09/30 09:42:00;;;;;;;17.47;15.53;;;13.70;99.90;;;;;;5071824;28;20422;-68
2022/09/30 09:44:43;;;;;;;17.57;15.87;;;13.70;99.90;;;;;;5070178;28;20520;-68
2022/09/30 09:47:15;;;;;;;18.97;16.93;;;13.90;99.90;;;;;;5072841;28;20437;-68
2022/09/30 09:49:49;;;;;;;17.93;16.03;;;14.20;99.90;;;;;;5072420;28;20462;-68
2022/09/30 09:52:26;;;;;;;27.70;18.67;;;14.20;99.90;;;;;;5071365;28;20418;-69
2022/09/30 09:54:55;;;;;;;16.77;15.07;;;14.30;99.90;;;;;;5072734;28;20413;-69
2022/09/30 09:57:30;;;;;;;15.90;14.33;;;14.50;99.90;;;;;;5071598;28;20466;-69
2022/09/30 10:03:02;;;;;;;16.90;14.43;;;14.80;99.90;;;;;;5072646;28;20382;-69
2022/09/30 10:05:38;;;;;;;14.03;12.50;;;14.50;99.90;;;;;;5072502;28;20407;-69
2022/09/30 10:08:21;;;;;;;15.90;14.30;;;14.50;99.90;;;;;;5072284;28;20448;-69
2022/09/30 10:10:47;;;;;;;13.93;12.43;;;14.70;99.90;;;;;;5076286;28;20888;-68
2022/09/30 10:13:19;;;;;;;12.80;11.60;;;15.10;99.90;;;;;;5075768;28;20404;-70
2022/09/30 10:15:45;;;;;;;14.83;13.23;;;15.40;99.90;;;;;;5076033;28;20177;-69
2022/09/30 10:18:27;;;;;;;14.73;13.30;;;15.50;99.90;;;;;;5076326;28;20448;-69
2022/09/30 10:20:57;;;;;;;14.27;12.87;;;15.50;99.90;;;;;;5076320;28;20445;-69
2022/09/30 10:23:31;;;;;;;14.60;13.10;;;15.50;99.90;;;;;;5075581;28;20406;-70
2022/09/30 10:26:07;;;;;;;15.97;14.13;;;15.50;99.90;;;;;;5075837;28;20389;-70
2022/09/30 10:28:47;;;;;;;14.53;13.03;;;15.80;99.90;;;;;;5055696;28;20447;-70
2022/09/30 10:31:20;;;;;;;18.00;12.53;;;16.00;99.90;;;;;;5057016;28;20386;-69
2022/09/30 10:33:51;;;;;;;9.77;8.77;;;16.20;99.90;;;;;;5071471;28;20504;-68
2022/09/30 10:36:19;;;;;;;9.23;7.53;;;16.20;99.90;;;;;;5076041;28;20388;-69
2022/09/30 10:39:00;;;;;;;7.17;6.47;;;16.20;99.90;;;;;;5075184;28;20449;-70
2022/09/30 10:41:29;;;;;;;8.50;7.00;;;16.30;99.90;;;;;;5075892;28;20480;-69
2022/09/30 10:43:59;;;;;;;6.63;6.00;;;16.30;99.90;;;;;;5075383;28;20404;-69
2022/09/30 10:46:29;;;;;;;3.00;2.27;;;16.40;99.90;;;;;;5075896;28;20856;-69
2022/09/30 10:48:56;;;;;;;2.67;2.40;;;16.20;99.90;;;;;;5075589;28;20443;-70
2022/09/30 10:51:28;;;;;;;3.20;2.60;;;16.10;99.90;;;;;;5075268;28;20416;-68
2022/09/30 10:53:56;;;;;;;6.53;4.67;;;15.80;99.90;;;;;;5075997;28;20467;-69
2022/09/30 10:56:39;;;;;;;6.20;4.53;;;15.80;99.90;;;;;;5075653;28;20489;-69
2022/09/30 10:59:33;;;;;;;5.10;4.60;;;16.20;99.90;;;;;;5075660;28;20886;-70
2022/09/30 11:02:23;;;;;;;8.43;4.60;;;16.90;99.90;;;;;;5075371;28;20377;-70
2022/09/30 11:04:58;;;;;;;5.60;5.10;;;18.40;99.90;;;;;;5075182;28;20459;-69
2022/09/30 11:07:30;;;;;;;5.70;5.20;;;19.70;98.90;;;;;;5075692;28;20485;-69
2022/09/30 11:10:10;;;;;;;4.57;4.17;;;20.10;97.50;;;;;;5074441;28;20460;-70
2022/09/30 11:12:56;;;;;;;4.10;3.70;;;22.30;96.20;;;;;;5075480;28;20404;-70
2022/09/30 11:15:28;;;;;;;4.27;3.03;;;22.90;91.30;;;;;;5075193;28;20446;-70
2022/09/30 11:18:18;;;;;;;6.63;3.87;;;22.50;90.10;;;;;;5075218;28;20440;-70
2022/09/30 11:20:56;;;;;;;4.10;3.10;;;24.20;87.20;;;;;;5073985;28;20395;-69
2022/09/30 11:23:45;;;;;;;2.63;2.43;;;25.20;81.90;;;;;;5074827;28;20396;-69
2022/09/30 11:26:25;;;;;;;3.40;2.43;;;25.20;79.20;;;;;;5075207;28;20396;-69
2022/09/30 11:29:22;;;;;;;4.40;3.37;;;26.30;71.50;;;;;;5054031;28;20444;-68
2022/09/30 11:32:03;;;;;;;2.87;2.20;;;24.10;72.90;;;;;;5055256;28;20739;-69
2022/09/30 11:34:56;;;;;;;4.80;4.30;;;24.20;73.10;;;;;;5071967;28;20416;-69
2022/09/30 11:37:35;;;;;;;4.07;3.67;;;24.60;73.10;;;;;;5074789;28;20422;-68
2022/09/30 11:40:31;;;;;;;3.53;3.20;;;23.80;76.40;;;;;;5074984;28;20391;-68
2022/09/30 11:43:34;;;;;;;4.00;3.60;;;23.60;77.70;;;;;;5065624;28;20416;-69
2022/09/30 11:46:09;;;;;;;4.73;3.53;;;24.70;79.80;;;;;;5055248;28;20388;-69
2022/09/30 11:48:56;;;;;;;4.93;3.40;;;24.90;74.20;;;;;;5054719;28;20533;-70
2022/09/30 11:51:46;;;;;;;4.87;3.23;;;25.20;75.40;;;;;;5056146;28;20424;-70
2022/09/30 11:54:42;;;;;;;2.60;2.40;;;25.90;71.40;;;;;;5074246;28;20495;-69
2022/09/30 11:57:29;;;;;;;3.20;2.90;;;25.90;73.80;;;;;;5074613;28;20457;-70
2022/09/30 12:00:12;;;;;;;4.40;2.80;;;25.40;69.40;;;;;;5054618;28;20450;-70
2022/09/30 12:02:39;;;;;;;3.53;2.97;;;24.80;68.30;;;;;;5054278;28;20906;-69
2022/09/30 12:05:27;;;;;;;3.70;3.37;;;25.10;68.80;;;;;;5054531;28;20914;-69
2022/09/30 12:08:15;;;;;;;4.27;3.80;;;26.50;67.80;;;;;;5053977;28;20433;-69
2022/09/30 12:11:03;;;;;;;4.80;3.80;;;26.10;67.00;;;;;;5054688;28;20420;-69
2022/09/30 12:13:33;;;;;;;3.27;2.97;;;25.10;68.50;;;;;;5054202;28;20397;-69
2022/09/30 12:16:03;;;;;;;3.40;2.80;;;26.30;68.20;;;;;;5054567;28;20386;-67
2022/09/30 12:18:43;;;;;;;3.90;2.90;;;26.50;65.30;;;;;;5054177;28;20574;-69
2022/09/30 12:21:28;;;;;;;4.77;3.20;;;25.00;71.20;;;;;;5054204;28;20476;-69
2022/09/30 12:23:58;;;;;;;3.17;2.87;;;24.80;70.40;;;;;;5054060;28;20389;-69
2022/09/30 12:26:24;;;;;;;3.87;2.80;;;25.30;70.20;;;;;;5054238;28;20512;-70
2022/09/30 12:32:08;;;;;;;4.67;2.20;;;28.20;62.00;;;;;;5074101;28;20494;-69
2022/09/30 12:34:52;;;;;;;2.50;2.30;;;27.50;61.30;;;;;;5065466;28;20771;-70
2022/09/30 12:37:35;;;;;;;2.23;1.93;;;27.30;60.50;;;;;;5072972;28;20424;-69
2022/09/30 12:40:27;;;;;;;3.77;2.40;;;27.10;59.70;;;;;;5053933;28;20393;-70
2022/09/30 12:43:14;;;;;;;3.30;2.17;;;28.70;57.70;;;;;;5052892;28;20389;-69
2022/09/30 12:46:17;;;;;;;2.00;1.40;;;28.80;56.90;;;;;;5053768;28;20381;-71
2022/09/30 12:48:45;;;;;;;1.80;1.30;;;28.20;56.20;;;;;;5053394;28;20491;-71
2022/09/30 12:51:21;;;;;;;3.27;2.07;;;28.30;55.10;;;;;;5053305;28;20444;-70
2022/09/30 12:53:50;;;;;;;4.97;1.90;;;27.80;54.60;;;;;;5062356;28;20416;-70
2022/09/30 12:56:17;;;;;;;4.77;1.73;;;27.90;53.30;;;;;;5066245;28;20417;-69
2022/09/30 12:58:48;;;;;;;2.90;1.60;;;28.60;53.00;;;;;;5072445;28;20498;-70
2022/09/30 13:01:17;;;;;;;4.80;1.93;;;28.80;55.30;;;;;;5073044;28;20395;-70
2022/09/30 13:04:03;;;;;;;2.20;1.87;;;29.90;51.70;;;;;;5073153;28;20395;-70
2022/09/30 13:06:44;;;;;;;1.67;1.50;;;28.30;51.90;;;;;;5065997;28;20404;-70
2022/09/30 13:09:15;;;;;;;2.40;1.63;;;28.70;50.70;;;;;;5073091;28;20818;-70
2022/09/30 13:12:04;;;;;;;1.90;1.73;;;29.70;50.40;;;;;;5072112;28;20467;-71
2022/09/30 13:14:39;;;;;;;2.80;1.30;;;29.00;50.40;;;;;;5064636;28;20419;-70
2022/09/30 13:17:07;;;;;;;1.57;1.40;;;27.40;52.20;;;;;;5073037;28;20816;-70
2022/09/30 13:19:43;;;;;;;3.13;1.57;;;26.90;54.80;;;;;;5073001;28;20408;-70